createdAt,value
2022-12-25T00:02:01.357Z,8.52
2022-12-25T00:04:28.017Z,8.12
2022-12-25T00:06:54.451Z,8.47
2022-12-25T00:09:20.929Z,8.12
2022-12-25T00:11:47.431Z,8.37
2022-12-25T00:14:13.935Z,8.35
2022-12-25T00:16:40.388Z,8.42
2022-12-25T00:19:06.931Z,8.43
2022-12-25T00:21:33.355Z,8.39
2022-12-25T00:23:59.841Z,8.35
2022-12-25T00:26:27.729Z,8.43
2022-12-25T00:28:55.878Z,8.05
2022-12-25T00:31:23.318Z,8.15
2022-12-25T00:33:51.276Z,8.42
2022-12-25T00:36:20.615Z,8.43
2022-12-25T00:38:47.090Z,8.44
2022-12-25T00:41:19.558Z,8.45
2022-12-25T00:43:46.048Z,8.47
2022-12-25T00:46:13.166Z,8.57
2022-12-25T00:48:40.371Z,8.21
2022-12-25T00:51:10.498Z,8.22
2022-12-25T00:53:36.917Z,8.34
2022-12-25T00:56:07.262Z,8.67
2022-12-25T00:58:34.742Z,8.72
2022-12-25T01:01:01.982Z,8.56
2022-12-25T01:03:29.155Z,8.64
2022-12-25T01:05:58.505Z,8.66
2022-12-25T01:08:25.959Z,8.91
2022-12-25T01:10:57.332Z,8.91
2022-12-25T01:13:24.290Z,8.61
2022-12-25T01:15:51.109Z,8.96
2022-12-25T01:18:22.252Z,8.98
2022-12-25T01:20:48.742Z,8.61
2022-12-25T01:23:15.783Z,8.62
2022-12-25T01:25:42.288Z,8.89
2022-12-25T01:28:09.108Z,8.98
2022-12-25T01:30:35.613Z,8.75
2022-12-25T01:33:02.085Z,8.97
2022-12-25T01:35:28.530Z,8.79
2022-12-25T01:37:54.968Z,8.93
2022-12-25T01:40:21.395Z,8.98
2022-12-25T01:42:47.896Z,8.68
2022-12-25T01:45:23.522Z,9.07
2022-12-25T01:47:50.391Z,8.95
2022-12-25T01:50:17.439Z,8.82
2022-12-25T01:52:44.831Z,8.63
2022-12-25T01:55:11.886Z,8.90
2022-12-25T01:57:39.619Z,8.60
2022-12-25T02:00:08.433Z,8.88
2022-12-25T02:02:36.218Z,9.00
2022-12-25T02:05:12.351Z,8.75
2022-12-25T02:07:39.801Z,9.01
2022-12-25T02:10:07.738Z,9.00
2022-12-25T02:12:35.454Z,8.92
2022-12-25T02:15:17.864Z,8.91
2022-12-25T02:17:59.455Z,8.92
2022-12-25T02:20:39.709Z,8.91
2022-12-25T02:23:33.658Z,8.82
2022-12-25T02:26:24.768Z,8.91
2022-12-25T02:29:12.125Z,8.82
2022-12-25T02:31:45.977Z,8.83
2022-12-25T02:34:31.785Z,8.60
2022-12-25T02:37:04.207Z,8.73
2022-12-25T02:39:57.425Z,8.48
2022-12-25T02:42:41.755Z,8.62
2022-12-25T02:45:08.593Z,8.70
2022-12-25T02:47:36.914Z,8.64
2022-12-25T02:50:06.298Z,8.67
2022-12-25T02:52:32.789Z,8.60
2022-12-25T02:55:11.368Z,8.45
2022-12-25T02:57:44.040Z,8.25
2022-12-25T03:00:12.009Z,8.51
2022-12-25T03:02:42.125Z,8.15
2022-12-25T03:05:13.535Z,8.38
2022-12-25T03:07:43.885Z,8.48
2022-12-25T03:10:14.192Z,8.15
2022-12-25T03:12:51.575Z,8.32
2022-12-25T03:15:19.693Z,8.43
2022-12-25T03:17:46.296Z,8.38
2022-12-25T03:20:12.962Z,8.39
2022-12-25T03:22:42.878Z,8.43
2022-12-25T03:25:09.525Z,8.39
2022-12-25T03:27:37.527Z,8.44
2022-12-25T03:30:04.538Z,8.40
2022-12-25T03:33:18.070Z,8.34
2022-12-25T03:36:05.117Z,8.44
2022-12-25T03:38:31.554Z,8.54
2022-12-25T03:41:20.880Z,8.43
2022-12-25T03:44:03.010Z,8.53
2022-12-25T03:46:34.615Z,8.48
2022-12-25T03:49:10.210Z,8.48
2022-12-25T03:51:39.615Z,8.25
2022-12-25T03:54:09.953Z,8.47
2022-12-25T03:56:38.159Z,8.26
2022-12-25T03:59:04.618Z,8.51
2022-12-25T04:01:31.371Z,8.49
2022-12-25T04:03:58.056Z,8.51
2022-12-25T04:06:24.567Z,8.48
2022-12-25T04:08:51.154Z,8.50
2022-12-25T04:11:18.410Z,8.25
2022-12-25T04:13:45.035Z,8.40
2022-12-25T04:16:11.471Z,8.44
2022-12-25T04:18:38.098Z,8.15
2022-12-25T04:21:04.605Z,8.46
2022-12-25T04:23:31.212Z,8.21
2022-12-25T04:25:58.701Z,8.54
2022-12-25T04:28:25.299Z,8.45
2022-12-25T04:30:51.775Z,8.38
2022-12-25T04:33:18.299Z,8.49
2022-12-25T04:35:48.765Z,8.54
2022-12-25T04:38:15.316Z,8.43
2022-12-25T04:40:41.724Z,8.35
2022-12-25T04:43:08.125Z,8.24
2022-12-25T04:45:34.515Z,8.36
2022-12-25T04:48:01.017Z,8.41
2022-12-25T04:50:27.615Z,8.41
2022-12-25T04:52:54.111Z,8.36
2022-12-25T04:55:20.680Z,8.43
2022-12-25T04:57:47.277Z,8.45
2022-12-25T05:00:14.069Z,8.54
2022-12-25T05:02:40.880Z,8.57
2022-12-25T05:05:07.790Z,8.60
2022-12-25T05:07:34.232Z,8.49
2022-12-25T05:10:00.752Z,8.58
2022-12-25T05:12:27.222Z,8.47
2022-12-25T05:14:53.634Z,8.65
2022-12-25T05:17:20.176Z,8.41
2022-12-25T05:19:46.749Z,8.73
2022-12-25T05:22:13.234Z,8.44
2022-12-25T05:24:39.930Z,8.72
2022-12-25T05:27:06.474Z,8.74
2022-12-25T05:29:32.900Z,8.63
2022-12-25T05:31:59.412Z,8.49
2022-12-25T05:34:25.978Z,8.71
2022-12-25T05:36:52.441Z,8.83
2022-12-25T05:39:19.075Z,8.76
2022-12-25T05:41:45.648Z,8.75
2022-12-25T05:44:12.342Z,8.80
2022-12-25T05:46:38.847Z,8.73
2022-12-25T05:49:05.349Z,8.44
2022-12-25T05:51:32.374Z,8.77
2022-12-25T05:53:59.120Z,8.73
2022-12-25T05:56:25.638Z,8.58
2022-12-25T05:58:52.310Z,8.84
2022-12-25T06:01:25.900Z,8.76
2022-12-25T06:03:53.036Z,8.83
2022-12-25T06:06:19.664Z,8.86
2022-12-25T06:08:46.892Z,8.90
2022-12-25T06:11:14.923Z,8.91
2022-12-25T06:13:42.029Z,8.87
2022-12-25T06:16:11.321Z,8.94
2022-12-25T06:18:40.198Z,9.00
2022-12-25T06:21:11.950Z,8.93
2022-12-25T06:23:39.259Z,8.91
2022-12-25T06:26:08.059Z,8.92
2022-12-25T06:28:34.768Z,8.73
2022-12-25T06:31:23.528Z,8.71
2022-12-25T06:33:50.464Z,8.95
2022-12-25T06:36:20.373Z,8.93
2022-12-25T06:38:47.119Z,8.60
2022-12-25T06:41:17.023Z,8.94
2022-12-25T06:43:43.825Z,8.63
2022-12-25T06:46:12.316Z,8.72
2022-12-25T06:48:40.540Z,8.92
2022-12-25T06:51:07.875Z,8.90
2022-12-25T06:53:39.670Z,8.94
2022-12-25T06:56:09.742Z,8.85
2022-12-25T06:58:36.228Z,8.94
2022-12-25T07:01:10.254Z,8.88
2022-12-25T07:03:36.757Z,8.77
2022-12-25T07:06:03.307Z,8.97
2022-12-25T07:08:29.805Z,8.75
2022-12-25T07:10:56.284Z,9.00
2022-12-25T07:13:22.738Z,8.65
2022-12-25T07:15:56.003Z,8.90
2022-12-25T07:18:22.568Z,8.63
2022-12-25T07:20:49.108Z,8.90
2022-12-25T07:23:15.772Z,8.90
2022-12-25T07:25:42.231Z,8.91
2022-12-25T07:28:08.821Z,8.93
2022-12-25T07:30:35.290Z,9.03
2022-12-25T07:33:01.873Z,9.00
2022-12-25T07:35:28.386Z,8.91
2022-12-25T07:37:54.870Z,8.81
2022-12-25T07:40:21.346Z,8.78
2022-12-25T07:42:47.883Z,8.69
2022-12-25T07:45:14.397Z,8.84
2022-12-25T07:47:40.845Z,8.99
2022-12-25T07:50:07.808Z,8.85
2022-12-25T07:52:39.499Z,8.91
2022-12-25T07:55:10.415Z,8.70
2022-12-25T07:57:37.028Z,8.81
2022-12-25T08:00:04.852Z,8.70
2022-12-25T08:02:31.509Z,8.94
2022-12-25T08:04:58.419Z,8.93
2022-12-25T08:07:24.879Z,8.85
2022-12-25T08:09:51.335Z,8.99
2022-12-25T08:12:17.904Z,8.97
2022-12-25T08:14:44.506Z,9.03
2022-12-25T08:17:11.118Z,8.94
2022-12-25T08:19:37.706Z,8.95
2022-12-25T08:22:04.233Z,8.63
2022-12-25T08:24:30.772Z,8.92
2022-12-25T08:26:57.277Z,8.64
2022-12-25T08:29:23.807Z,8.70
2022-12-25T08:31:50.376Z,8.97
2022-12-25T08:34:16.896Z,8.69
2022-12-25T08:36:43.322Z,8.94
2022-12-25T08:39:10.024Z,8.96
2022-12-25T08:41:36.626Z,8.62
2022-12-25T08:44:04.510Z,8.73
2022-12-25T08:46:31.167Z,8.98
2022-12-25T08:48:58.005Z,8.98
2022-12-25T08:51:26.035Z,8.96
2022-12-25T08:53:53.511Z,9.02
2022-12-25T08:56:20.399Z,9.00
2022-12-25T08:58:47.227Z,9.01
2022-12-25T09:01:13.958Z,8.74
2022-12-25T09:03:40.535Z,8.97
2022-12-25T09:06:09.817Z,9.01
2022-12-25T09:08:41.093Z,8.95
2022-12-25T09:11:14.823Z,8.94
2022-12-25T09:13:41.827Z,8.64
2022-12-25T09:16:10.911Z,8.94
2022-12-25T09:18:37.530Z,8.91
2022-12-25T09:21:07.897Z,9.00
2022-12-25T09:23:34.652Z,8.85
2022-12-25T09:26:02.653Z,9.02
2022-12-25T09:28:29.358Z,8.96
2022-12-25T09:30:56.070Z,8.58
2022-12-25T09:33:22.862Z,8.55
2022-12-25T09:35:54.604Z,8.91
2022-12-25T09:38:21.299Z,8.83
2022-12-25T09:40:49.738Z,8.67
2022-12-25T09:43:18.917Z,9.02
2022-12-25T09:45:45.638Z,8.96
2022-12-25T09:48:16.410Z,9.01
2022-12-25T09:51:04.251Z,8.74
2022-12-25T09:53:38.567Z,9.04
2022-12-25T09:56:17.412Z,8.95
2022-12-25T09:58:44.179Z,9.07
2022-12-25T10:01:44.782Z,9.14
2022-12-25T10:04:29.687Z,8.90
2022-12-25T10:07:21.533Z,8.65
2022-12-25T10:10:25.784Z,8.94
2022-12-25T10:13:15.225Z,8.76
2022-12-25T10:16:11.039Z,8.92
2022-12-25T10:18:42.360Z,8.90
2022-12-25T10:21:13.436Z,8.77
2022-12-25T10:23:48.980Z,8.79
2022-12-25T10:26:21.508Z,8.56
2022-12-25T10:29:14.299Z,8.82
2022-12-25T10:31:41.684Z,8.95
2022-12-25T10:34:10.854Z,8.87
2022-12-25T10:36:37.704Z,8.61
2022-12-25T10:39:04.209Z,9.11
2022-12-25T10:42:09.084Z,9.07
2022-12-25T10:44:36.040Z,8.96
2022-12-25T10:47:04.712Z,8.89
2022-12-25T10:49:39.103Z,8.58
2022-12-25T10:52:24.924Z,9.02
2022-12-25T10:54:52.264Z,8.87
2022-12-25T10:57:22.309Z,8.45
2022-12-25T10:59:51.550Z,9.01
2022-12-25T11:02:30.466Z,8.43
2022-12-25T11:05:05.421Z,8.91
2022-12-25T11:07:34.924Z,8.91
2022-12-25T11:10:05.936Z,8.90
2022-12-25T11:12:38.037Z,8.81
2022-12-25T11:15:33.668Z,8.90
2022-12-25T11:18:00.429Z,8.87
2022-12-25T11:20:26.961Z,8.77
2022-12-25T11:22:53.466Z,8.57
2022-12-25T11:25:25.331Z,9.01
2022-12-25T11:28:00.139Z,8.73
2022-12-25T11:30:29.860Z,8.84
2022-12-25T11:33:00.894Z,8.81
2022-12-25T11:35:31.143Z,8.93
2022-12-25T11:37:57.717Z,8.87
2022-12-25T11:40:41.029Z,9.29
2022-12-25T11:43:26.878Z,9.11
2022-12-25T11:46:18.130Z,9.29
2022-12-25T11:48:51.743Z,9.14
2022-12-25T11:51:20.074Z,9.25
2022-12-25T11:53:54.072Z,8.83
2022-12-25T11:56:30.282Z,9.27
2022-12-25T11:59:16.376Z,9.16
2022-12-25T12:01:50.672Z,9.16
2022-12-25T12:04:42.646Z,9.23
2022-12-25T12:07:21.823Z,8.74
2022-12-25T12:09:58.215Z,9.07
2022-12-25T12:12:49.550Z,9.16
2022-12-25T12:15:18.983Z,9.05
2022-12-25T12:17:45.707Z,9.01
2022-12-25T12:20:26.560Z,9.28
2022-12-25T12:22:53.406Z,9.50
2022-12-25T12:25:22.616Z,9.04
2022-12-25T12:28:05.240Z,8.89
2022-12-25T12:30:35.564Z,9.05
2022-12-25T12:33:05.100Z,9.20
2022-12-25T12:35:38.787Z,9.42
2022-12-25T12:38:20.940Z,9.11
2022-12-25T12:41:00.981Z,8.84
2022-12-25T12:43:36.010Z,9.12
2022-12-25T12:46:31.035Z,9.07
2022-12-25T12:49:33.507Z,9.20
2022-12-25T12:52:25.889Z,9.23
2022-12-25T12:55:03.035Z,8.63
2022-12-25T12:57:32.266Z,9.01
2022-12-25T13:00:04.786Z,9.05
2022-12-25T13:02:38.288Z,9.08
2022-12-25T13:05:36.335Z,9.08
2022-12-25T13:08:44.825Z,9.06
2022-12-25T13:11:24.553Z,8.66
2022-12-25T13:13:54.028Z,9.04
2022-12-25T13:16:26.813Z,9.08
2022-12-25T13:18:55.334Z,8.54
2022-12-25T13:21:30.020Z,8.61
2022-12-25T13:24:02.258Z,8.84
2022-12-25T13:26:29.625Z,9.39
2022-12-25T13:28:56.388Z,8.92
2022-12-25T13:31:29.459Z,8.67
2022-12-25T13:34:00.761Z,9.14
2022-12-25T13:36:29.673Z,9.05
2022-12-25T13:38:58.676Z,9.21
2022-12-25T13:41:30.638Z,8.75
2022-12-25T13:43:58.810Z,9.31
2022-12-25T13:46:27.270Z,9.20
2022-12-25T13:49:01.297Z,9.38
2022-12-25T13:51:28.412Z,8.79
2022-12-25T13:54:07.177Z,9.66
2022-12-25T13:56:34.562Z,9.17
2022-12-25T13:59:01.252Z,9.60
2022-12-25T14:01:28.973Z,9.51
2022-12-25T14:03:55.887Z,9.55
2022-12-25T14:06:28.763Z,9.36
2022-12-25T14:08:57.666Z,9.92
2022-12-25T14:11:27.409Z,9.07
2022-12-25T14:14:00.419Z,9.34
2022-12-25T14:16:28.951Z,9.29
2022-12-25T14:19:01.276Z,9.68
2022-12-25T14:21:37.891Z,9.85
2022-12-25T14:24:12.573Z,9.62
2022-12-25T14:26:39.185Z,9.41
2022-12-25T14:29:05.588Z,9.65
2022-12-25T14:31:33.547Z,9.64
2022-12-25T14:34:02.071Z,9.57
2022-12-25T14:36:30.783Z,9.04
2022-12-25T14:39:04.247Z,9.37
2022-12-25T14:41:40.288Z,9.42
2022-12-25T14:44:37.005Z,9.75
2022-12-25T14:47:18.189Z,9.48
2022-12-25T14:49:45.133Z,8.95
2022-12-25T14:52:42.107Z,9.40
2022-12-25T14:55:25.029Z,9.32
2022-12-25T14:57:55.276Z,8.90
2022-12-25T15:00:22.232Z,9.34
2022-12-25T15:02:53.212Z,9.08
2022-12-25T15:05:23.828Z,8.80
2022-12-25T15:08:18.223Z,9.25
2022-12-25T15:11:02.248Z,9.21
2022-12-25T15:13:31.030Z,9.10
2022-12-25T15:15:59.330Z,9.04
2022-12-25T15:18:30.879Z,9.29
2022-12-25T15:20:57.739Z,9.06
2022-12-25T15:23:24.349Z,9.11
2022-12-25T15:25:51.837Z,8.62
2022-12-25T15:28:18.547Z,9.00
2022-12-25T15:30:45.113Z,8.78
2022-12-25T15:33:17.042Z,8.95
2022-12-25T15:35:44.242Z,8.96
2022-12-25T15:38:12.516Z,8.99
2022-12-25T15:40:40.024Z,8.97
2022-12-25T15:43:14.366Z,8.98
2022-12-25T15:45:47.414Z,8.99
2022-12-25T15:48:13.871Z,8.94
2022-12-25T15:50:40.293Z,8.97
2022-12-25T15:53:06.731Z,8.97
2022-12-25T15:55:34.594Z,8.80
2022-12-25T15:58:01.049Z,8.90
2022-12-25T16:00:27.690Z,8.48
2022-12-25T16:02:54.358Z,9.35
2022-12-25T16:05:21.397Z,8.87
2022-12-25T16:07:48.781Z,8.56
2022-12-25T16:10:18.263Z,8.96
2022-12-25T16:12:45.846Z,8.92
2022-12-25T16:15:13.815Z,8.99
2022-12-25T16:17:40.452Z,8.93
2022-12-25T16:20:08.041Z,8.96
2022-12-25T16:22:34.516Z,8.51
2022-12-25T16:25:01.028Z,9.03
2022-12-25T16:27:27.499Z,8.48
2022-12-25T16:29:53.975Z,8.98
2022-12-25T16:32:20.470Z,8.69
2022-12-25T16:34:48.647Z,9.23
2022-12-25T16:37:15.253Z,9.25
2022-12-25T16:39:41.724Z,9.28
2022-12-25T16:42:08.146Z,9.35
2022-12-25T16:44:36.572Z,9.43
2022-12-25T16:47:03.118Z,9.49
2022-12-25T16:49:29.751Z,9.16
2022-12-25T16:51:56.212Z,8.98
2022-12-25T16:54:22.736Z,9.36
2022-12-25T16:56:49.212Z,9.35
2022-12-25T16:59:15.691Z,9.11
2022-12-25T17:01:42.208Z,9.12
2022-12-25T17:04:09.614Z,8.52
2022-12-25T17:06:36.389Z,8.99
2022-12-25T17:09:04.195Z,8.54
2022-12-25T17:11:31.891Z,8.78
2022-12-25T17:14:00.617Z,8.91
2022-12-25T17:16:29.470Z,8.39
2022-12-25T17:18:58.215Z,8.90
2022-12-25T17:21:25.444Z,8.52
2022-12-25T17:23:58.037Z,8.85
2022-12-25T17:26:28.171Z,8.87
2022-12-25T17:28:54.828Z,8.67
2022-12-25T17:31:21.339Z,9.14
2022-12-25T17:33:47.908Z,8.74
2022-12-25T17:36:17.554Z,9.27
2022-12-25T17:38:44.417Z,9.35
2022-12-25T17:41:13.964Z,9.07
2022-12-25T17:43:40.471Z,9.31
2022-12-25T17:46:09.050Z,9.34
2022-12-25T17:48:35.584Z,9.20
2022-12-25T17:51:14.002Z,9.30
2022-12-25T17:53:42.804Z,9.51
2022-12-25T17:56:10.516Z,9.51
2022-12-25T17:58:37.797Z,9.34
2022-12-25T18:01:08.687Z,9.16
2022-12-25T18:03:35.377Z,8.95
2022-12-25T18:06:03.711Z,8.91
2022-12-25T18:08:35.325Z,9.05
2022-12-25T18:11:07.653Z,8.98
2022-12-25T18:13:34.179Z,9.01
2022-12-25T18:16:05.581Z,9.13
2022-12-25T18:18:32.582Z,9.28
2022-12-25T18:20:59.549Z,9.10
2022-12-25T18:23:26.315Z,9.11
2022-12-25T18:25:52.803Z,9.32
2022-12-25T18:28:19.380Z,9.23
2022-12-25T18:30:47.134Z,9.29
2022-12-25T18:33:13.751Z,9.08
2022-12-25T18:35:42.653Z,9.22
2022-12-25T18:38:11.299Z,9.23
2022-12-25T18:40:46.131Z,9.24
2022-12-25T18:43:13.757Z,8.97
2022-12-25T18:45:40.702Z,8.92
2022-12-25T18:48:08.308Z,8.97
2022-12-25T18:50:40.080Z,9.04
2022-12-25T18:53:07.312Z,8.97
2022-12-25T18:55:33.818Z,8.97
2022-12-25T18:58:00.274Z,8.67
2022-12-25T19:00:26.752Z,8.85
2022-12-25T19:02:57.954Z,8.60
2022-12-25T19:05:24.907Z,9.02
2022-12-25T19:07:51.410Z,9.11
2022-12-25T19:10:17.936Z,8.96
2022-12-25T19:12:44.442Z,8.89
2022-12-25T19:15:11.161Z,8.49
2022-12-25T19:17:37.827Z,8.89
2022-12-25T19:20:04.901Z,8.84
2022-12-25T19:22:31.618Z,8.82
2022-12-25T19:24:58.432Z,8.52
2022-12-25T19:27:24.981Z,8.88
2022-12-25T19:29:51.499Z,8.77
2022-12-25T19:32:18.038Z,8.82
2022-12-25T19:34:44.575Z,8.79
2022-12-25T19:37:11.057Z,8.86
2022-12-25T19:39:37.886Z,8.86
2022-12-25T19:42:04.461Z,8.84
2022-12-25T19:44:30.978Z,8.78
2022-12-25T19:46:57.452Z,9.04
2022-12-25T19:49:23.912Z,8.76
2022-12-25T19:51:50.364Z,8.49
2022-12-25T19:54:17.213Z,8.80
2022-12-25T19:56:43.720Z,8.80
2022-12-25T19:59:12.087Z,8.86
2022-12-25T20:01:39.062Z,9.05
2022-12-25T20:04:09.898Z,9.05
2022-12-25T20:06:38.499Z,9.01
2022-12-25T20:09:11.223Z,9.07
2022-12-25T20:11:37.801Z,8.66
2022-12-25T20:14:05.928Z,8.27
2022-12-25T20:16:33.050Z,8.85
2022-12-25T20:18:59.578Z,8.83
2022-12-25T20:21:26.471Z,8.85
2022-12-25T20:23:53.853Z,8.88
2022-12-25T20:26:25.001Z,8.66
2022-12-25T20:28:52.183Z,8.91
2022-12-25T20:31:21.759Z,8.86
2022-12-25T20:33:48.359Z,8.34
2022-12-25T20:36:15.580Z,8.88
2022-12-25T20:38:42.410Z,8.93
2022-12-25T20:41:30.586Z,8.97
2022-12-25T20:43:57.746Z,9.11
2022-12-25T20:46:25.426Z,9.10
2022-12-25T20:48:52.090Z,8.95
2022-12-25T20:51:21.790Z,9.12
2022-12-25T20:53:49.002Z,8.56
2022-12-25T20:56:17.797Z,8.98
2022-12-25T20:58:44.436Z,9.13
2022-12-25T21:01:14.620Z,8.50
2022-12-25T21:03:41.898Z,9.13
2022-12-25T21:06:09.611Z,9.23
2022-12-25T21:08:36.719Z,9.41
2022-12-25T21:11:04.662Z,8.85
2022-12-25T21:13:34.565Z,9.18
2022-12-25T21:16:01.143Z,9.20
2022-12-25T21:18:28.215Z,9.13
2022-12-25T21:20:57.083Z,8.76
2022-12-25T21:23:24.956Z,9.31
2022-12-25T21:25:51.368Z,9.29
2022-12-25T21:28:18.055Z,9.36
2022-12-25T21:30:44.545Z,9.34
2022-12-25T21:33:16.691Z,9.37
2022-12-25T21:35:43.658Z,8.90
2022-12-25T21:38:10.153Z,9.34
2022-12-25T21:40:37.872Z,9.37
2022-12-25T21:43:04.624Z,9.41
2022-12-25T21:45:32.895Z,9.39
2022-12-25T21:48:03.325Z,9.21
2022-12-25T21:50:32.520Z,8.77
2022-12-25T21:53:02.489Z,9.27
2022-12-25T21:55:29.021Z,9.27
2022-12-25T21:57:55.576Z,8.82
2022-12-25T22:00:22.085Z,9.12
2022-12-25T22:02:49.526Z,9.12
2022-12-25T22:05:16.329Z,9.05
2022-12-25T22:07:42.823Z,8.97
2022-12-25T22:10:09.317Z,8.90
2022-12-25T22:12:35.817Z,8.84
2022-12-25T22:15:04.638Z,8.88
2022-12-25T22:17:34.349Z,8.96
2022-12-25T22:20:00.840Z,8.90
2022-12-25T22:22:29.847Z,8.91
2022-12-25T22:24:58.979Z,8.83
2022-12-25T22:27:29.328Z,8.59
2022-12-25T22:29:55.790Z,8.88
2022-12-25T22:32:22.317Z,8.48
2022-12-25T22:34:48.953Z,8.38
2022-12-25T22:37:17.855Z,8.89
2022-12-25T22:39:44.910Z,8.95
2022-12-25T22:42:12.270Z,8.92
2022-12-25T22:44:38.794Z,8.90
2022-12-25T22:47:05.462Z,8.54
2022-12-25T22:49:31.991Z,8.86
2022-12-25T22:51:58.587Z,8.80
2022-12-25T22:54:28.340Z,8.54
2022-12-25T22:56:54.900Z,9.04
2022-12-25T22:59:22.150Z,8.85
2022-12-25T23:01:49.944Z,8.78
2022-12-25T23:04:17.428Z,8.88
2022-12-25T23:06:44.211Z,8.34
2022-12-25T23:09:17.578Z,8.63
2022-12-25T23:11:48.987Z,8.85
2022-12-25T23:14:15.750Z,8.42
2022-12-25T23:16:42.273Z,8.86
2022-12-25T23:19:11.898Z,8.85
2022-12-25T23:21:39.329Z,8.41
2022-12-25T23:24:06.314Z,8.76
2022-12-25T23:26:32.834Z,8.85
2022-12-25T23:28:59.350Z,8.93
2022-12-25T23:31:29.569Z,8.89
2022-12-25T23:33:56.214Z,8.85
2022-12-25T23:36:22.790Z,8.71
2022-12-25T23:38:49.262Z,8.33
2022-12-25T23:41:16.135Z,8.87
2022-12-25T23:43:42.751Z,8.80
2022-12-25T23:46:09.329Z,8.79
2022-12-25T23:48:35.869Z,8.85
2022-12-25T23:51:03.881Z,8.92
2022-12-25T23:53:30.988Z,8.86
2022-12-25T23:55:57.693Z,8.44
2022-12-25T23:58:25.657Z,8.88
